Time;durP1;ratioP1;P1;durP2;ratioP2;P2;SDS_P1;SDS_P2;PMS_P1;PMS_P2;Temp;Humidity;BMP_temperature;BMP_pressure;BME280_temperature;BME280_humidity;BME280_pressure;Samples;Min_cycle;Max_cycle;Signal;HPM_P1;HPM_P2
2021/10/20 00:00:50;;;;;;;7.03;4.50;;;17.50;72.90;;;;;;5063429;28;20188;-85
2021/10/20 00:03:16;;;;;;;5.50;4.90;;;17.70;72.90;;;;;;5047004;28;20201;-84
2021/10/20 00:05:41;;;;;;;8.43;4.83;;;17.70;72.80;;;;;;5059675;28;20227;-84
2021/10/20 00:08:07;;;;;;;7.53;4.20;;;17.70;72.60;;;;;;5060543;28;20181;-84
2021/10/20 00:10:35;;;;;;;9.13;4.50;;;17.70;72.70;;;;;;5057574;28;20680;-84
2021/10/20 00:13:02;;;;;;;7.38;4.85;;;17.70;72.70;;;;;;5060382;28;20182;-85
2021/10/20 00:15:27;;;;;;;5.70;4.55;;;17.60;72.90;;;;;;5060922;28;20231;-84
2021/10/20 00:17:53;;;;;;;8.17;5.27;;;17.70;72.80;;;;;;5060116;28;20224;-84
2021/10/20 00:20:22;;;;;;;5.43;4.90;;;17.70;72.80;;;;;;5061808;28;20177;-84
2021/10/20 00:22:49;;;;;;;5.20;4.70;;;17.50;72.70;;;;;;5062111;28;20177;-84
2021/10/20 00:25:16;;;;;;;5.53;5.03;;;17.50;73.00;;;;;;5061971;28;20193;-84
2021/10/20 00:27:43;;;;;;;4.82;3.90;;;17.50;73.10;;;;;;5061768;28;20165;-84
2021/10/20 00:30:09;;;;;;;7.05;4.60;;;17.50;73.30;;;;;;5061529;28;20205;-84
2021/10/20 00:32:36;;;;;;;6.75;4.57;;;17.50;73.60;;;;;;5059379;28;20227;-84
2021/10/20 00:35:04;;;;;;;7.07;4.18;;;17.50;73.40;;;;;;5052530;28;20205;-84
2021/10/20 00:37:29;;;;;;;7.95;4.93;;;17.50;73.50;;;;;;5064575;28;20173;-84
2021/10/20 00:39:55;;;;;;;6.90;5.70;;;17.50;73.50;;;;;;5057213;28;20192;-84
2021/10/20 00:42:23;;;;;;;7.10;5.20;;;17.40;73.10;;;;;;5058634;28;20414;-84
2021/10/20 00:44:59;;;;;;;5.53;5.00;;;17.40;73.50;;;;;;5055093;28;20200;-84
2021/10/20 00:47:27;;;;;;;11.57;4.65;;;17.30;73.70;;;;;;5054440;28;20263;-84
2021/10/20 00:49:54;;;;;;;6.13;4.93;;;17.40;73.80;;;;;;5055417;28;20193;-85
2021/10/20 00:52:22;;;;;;;7.32;5.35;;;17.40;73.50;;;;;;5054958;28;20560;-85
2021/10/20 00:54:50;;;;;;;5.95;4.97;;;17.30;73.80;;;;;;5049676;28;20257;-85
2021/10/20 00:57:17;;;;;;;4.90;4.47;;;17.40;73.90;;;;;;5034260;28;20181;-85
2021/10/20 00:59:43;;;;;;;9.35;5.20;;;17.40;73.90;;;;;;5036492;28;20208;-84
2021/10/20 01:02:09;;;;;;;5.32;4.35;;;17.40;73.70;;;;;;5038120;28;20174;-84
2021/10/20 01:04:36;;;;;;;6.35;5.03;;;17.20;73.50;;;;;;5037320;28;20209;-84
2021/10/20 01:07:03;;;;;;;6.63;4.43;;;17.20;74.20;;;;;;5037674;28;20185;-84
2021/10/20 01:09:29;;;;;;;12.57;5.28;;;17.20;74.30;;;;;;5037077;28;20185;-84
2021/10/20 01:11:55;;;;;;;7.57;4.10;;;17.40;74.20;;;;;;5042445;28;20201;-84
2021/10/20 01:14:21;;;;;;;6.17;4.90;;;17.30;73.90;;;;;;5054909;28;20503;-84
2021/10/20 01:16:47;;;;;;;7.32;4.95;;;17.20;74.30;;;;;;5049327;28;20931;-85
2021/10/20 01:19:15;;;;;;;7.80;4.82;;;17.20;74.20;;;;;;5032773;28;20189;-84
2021/10/20 01:21:41;;;;;;;9.27;4.30;;;17.30;74.20;;;;;;5036182;28;20227;-84
2021/10/20 01:24:08;;;;;;;8.13;5.53;;;17.40;74.20;;;;;;5035018;28;20208;-84
2021/10/20 01:26:34;;;;;;;6.57;5.43;;;17.30;74.20;;;;;;5018693;28;20189;-84
2021/10/20 01:29:00;;;;;;;9.10;5.78;;;17.40;74.20;;;;;;5035637;28;20190;-84
2021/10/20 01:31:25;;;;;;;8.43;5.40;;;17.40;74.00;;;;;;5035569;28;20328;-84
2021/10/20 01:33:51;;;;;;;5.43;4.90;;;17.40;73.90;;;;;;5039557;28;20451;-84
2021/10/20 01:36:17;;;;;;;7.60;5.23;;;17.30;73.90;;;;;;5055262;28;20808;-84
2021/10/20 01:38:43;;;;;;;8.00;4.93;;;17.30;74.30;;;;;;5052300;28;20182;-84
2021/10/20 01:41:10;;;;;;;5.23;4.73;;;17.40;74.50;;;;;;5052548;28;20416;-84
2021/10/20 01:43:44;;;;;;;6.70;5.35;;;17.40;74.10;;;;;;5054114;28;20447;-85
2021/10/20 01:46:12;;;;;;;7.53;5.57;;;17.50;74.00;;;;;;5054787;28;20181;-84
2021/10/20 01:48:38;;;;;;;7.00;5.15;;;17.50;74.70;;;;;;5054377;28;20178;-84
2021/10/20 01:51:03;;;;;;;6.57;5.73;;;17.40;73.70;;;;;;5055644;28;20224;-84
2021/10/20 01:53:30;;;;;;;5.83;5.23;;;17.50;73.90;;;;;;5056233;28;20603;-85
2021/10/20 01:55:56;;;;;;;6.07;4.60;;;17.40;74.20;;;;;;5071028;28;20277;-84
2021/10/20 01:58:22;;;;;;;6.23;5.17;;;17.40;74.60;;;;;;5038098;28;20221;-84
2021/10/20 02:00:48;;;;;;;10.40;5.27;;;17.40;74.70;;;;;;5038246;28;20255;-84
2021/10/20 02:03:13;;;;;;;7.73;5.43;;;17.40;74.50;;;;;;5073310;28;20205;-85
2021/10/20 02:05:39;;;;;;;5.67;5.17;;;17.30;74.50;;;;;;5074307;28;20206;-84
2021/10/20 02:08:05;;;;;;;8.70;6.23;;;17.30;74.60;;;;;;5074286;28;20201;-84
2021/10/20 02:10:30;;;;;;;6.17;5.57;;;17.40;74.60;;;;;;5058509;28;20208;-85
2021/10/20 02:12:56;;;;;;;9.40;6.37;;;17.40;74.50;;;;;;5058962;28;20181;-85
2021/10/20 02:15:22;;;;;;;9.60;5.83;;;17.30;74.40;;;;;;5055582;28;20213;-86
2021/10/20 02:17:48;;;;;;;7.20;5.33;;;17.40;74.50;;;;;;5039779;28;20194;-85
2021/10/20 02:20:15;;;;;;;6.30;5.47;;;17.40;74.40;;;;;;5049420;28;20447;-85
2021/10/20 02:22:42;;;;;;;9.05;6.57;;;17.30;74.40;;;;;;5056309;28;20182;-85
2021/10/20 02:25:08;;;;;;;7.15;5.30;;;17.30;74.40;;;;;;5041805;28;20292;-85
2021/10/20 02:27:34;;;;;;;11.50;7.05;;;17.40;74.50;;;;;;5061259;28;20173;-84
2021/10/20 02:30:01;;;;;;;8.50;5.97;;;17.40;74.50;;;;;;5062134;28;20300;-84
2021/10/20 02:32:26;;;;;;;5.22;4.72;;;17.40;74.30;;;;;;5064242;28;20200;-84
2021/10/20 02:34:52;;;;;;;6.70;5.70;;;17.30;74.40;;;;;;5062612;28;20681;-84
2021/10/20 02:37:18;;;;;;;7.40;5.50;;;17.30;74.50;;;;;;5062558;28;20177;-84
2021/10/20 02:39:43;;;;;;;7.17;5.20;;;17.20;74.50;;;;;;5064187;28;20218;-84
2021/10/20 02:42:09;;;;;;;9.50;6.00;;;17.10;75.00;;;;;;5064374;28;20632;-84
2021/10/20 02:44:35;;;;;;;8.10;5.60;;;17.10;75.70;;;;;;5063087;28;20264;-84
2021/10/20 02:47:01;;;;;;;6.53;5.40;;;17.10;75.60;;;;;;5063760;28;20185;-84
2021/10/20 02:49:26;;;;;;;6.37;5.77;;;17.20;75.30;;;;;;5063040;28;20178;-84
2021/10/20 02:51:52;;;;;;;8.27;6.27;;;17.20;75.10;;;;;;5064280;28;20211;-84
2021/10/20 02:54:19;;;;;;;8.47;5.80;;;17.10;75.30;;;;;;5063218;28;20252;-84
2021/10/20 02:56:46;;;;;;;5.90;5.38;;;17.20;75.10;;;;;;5063740;28;20173;-84
2021/10/20 02:59:12;;;;;;;5.90;5.25;;;17.20;75.00;;;;;;5062646;28;20174;-84
2021/10/20 03:01:38;;;;;;;5.63;5.03;;;17.30;75.10;;;;;;5064623;28;20538;-84
2021/10/20 03:04:05;;;;;;;6.40;5.43;;;17.20;74.90;;;;;;5066619;28;20208;-84
2021/10/20 03:06:30;;;;;;;5.40;4.90;;;17.20;74.90;;;;;;5066884;28;20181;-84
2021/10/20 03:08:56;;;;;;;11.17;5.00;;;17.30;75.20;;;;;;5062505;28;20196;-84
2021/10/20 03:11:22;;;;;;;5.47;4.60;;;17.20;75.00;;;;;;5048365;28;20232;-84
2021/10/20 03:13:48;;;;;;;4.97;4.47;;;17.10;75.20;;;;;;5066206;28;20230;-84
2021/10/20 03:16:13;;;;;;;6.83;5.07;;;17.00;75.10;;;;;;5064482;28;20432;-84
2021/10/20 03:18:39;;;;;;;16.87;5.50;;;17.10;75.40;;;;;;5066013;28;20415;-84
2021/10/20 03:21:05;;;;;;;5.63;4.90;;;17.20;75.30;;;;;;5066144;28;20241;-84
2021/10/20 03:23:31;;;;;;;7.50;5.63;;;17.20;75.30;;;;;;5065762;28;20742;-85
2021/10/20 03:25:56;;;;;;;9.03;5.87;;;17.30;75.10;;;;;;5064931;28;20179;-84
2021/10/20 03:28:22;;;;;;;9.07;6.20;;;17.30;74.80;;;;;;5056845;28;20432;-85
2021/10/20 03:30:48;;;;;;;6.90;6.03;;;17.20;74.80;;;;;;5051334;28;20199;-85
2021/10/20 03:33:14;;;;;;;7.90;6.03;;;17.20;74.80;;;;;;5066036;28;20428;-84
2021/10/20 03:35:39;;;;;;;6.70;5.70;;;17.30;74.90;;;;;;5064764;28;20635;-85
2021/10/20 03:38:09;;;;;;;7.97;5.73;;;17.40;74.60;;;;;;5062967;28;20173;-84
2021/10/20 03:40:35;;;;;;;7.07;5.97;;;17.30;74.60;;;;;;5063338;28;20173;-85
2021/10/20 03:43:02;;;;;;;7.30;6.00;;;17.20;74.40;;;;;;5062306;28;20228;-85
2021/10/20 03:45:27;;;;;;;7.30;6.25;;;17.10;74.50;;;;;;5063136;28;20211;-85
2021/10/20 03:47:53;;;;;;;10.40;5.50;;;17.30;74.70;;;;;;5062104;28;20221;-84
2021/10/20 03:50:19;;;;;;;8.60;5.60;;;17.30;74.50;;;;;;5043505;28;20209;-85
2021/10/20 03:52:45;;;;;;;10.37;5.60;;;17.40;74.40;;;;;;5055189;28;20245;-85
2021/10/20 03:55:10;;;;;;;7.17;6.33;;;17.30;74.60;;;;;;5050937;28;20439;-85
2021/10/20 03:57:38;;;;;;;7.37;6.57;;;17.30;74.20;;;;;;5053897;28;20174;-85
2021/10/20 04:00:12;;;;;;;6.18;5.55;;;17.40;74.20;;;;;;5043405;28;20162;-84
2021/10/20 04:02:45;;;;;;;8.02;6.55;;;17.20;74.20;;;;;;5054907;28;20200;-83
2021/10/20 04:05:18;;;;;;;13.60;6.18;;;17.40;74.40;;;;;;5061702;28;20225;-84
2021/10/20 04:07:45;;;;;;;6.43;4.90;;;17.40;74.30;;;;;;5058922;28;20264;-84
2021/10/20 04:10:16;;;;;;;7.43;6.63;;;17.20;74.10;;;;;;5058766;28;20197;-84
2021/10/20 04:12:43;;;;;;;10.35;5.22;;;17.20;74.40;;;;;;5052686;28;20177;-85
2021/10/20 04:15:10;;;;;;;9.32;6.85;;;17.20;74.50;;;;;;5050704;28;20205;-84
2021/10/20 04:17:38;;;;;;;6.47;5.25;;;17.20;74.60;;;;;;5035532;28;20312;-84
2021/10/20 04:20:09;;;;;;;10.00;5.65;;;17.30;74.60;;;;;;5053253;28;20189;-84
2021/10/20 04:22:35;;;;;;;6.50;5.30;;;17.20;74.30;;;;;;5037502;28;20257;-84
2021/10/20 04:25:01;;;;;;;6.20;5.57;;;17.30;74.40;;;;;;5037540;28;20201;-84
2021/10/20 04:27:27;;;;;;;8.90;6.05;;;17.20;74.00;;;;;;5037272;28;20237;-84
2021/10/20 04:29:55;;;;;;;8.20;6.10;;;17.20;74.40;;;;;;5035812;28;20209;-85
2021/10/20 04:32:21;;;;;;;7.55;5.10;;;17.10;74.50;;;;;;5056444;28;20199;-84
2021/10/20 04:34:47;;;;;;;7.73;5.30;;;17.10;74.60;;;;;;5055972;28;20199;-84
2021/10/20 04:37:12;;;;;;;10.50;6.00;;;17.20;74.60;;;;;;5057130;28;20528;-83
2021/10/20 04:39:38;;;;;;;8.53;6.50;;;17.20;74.50;;;;;;5043045;28;20181;-83
2021/10/20 04:42:04;;;;;;;7.17;5.60;;;17.30;74.50;;;;;;5059199;28;20177;-84
2021/10/20 04:44:29;;;;;;;5.77;5.20;;;17.20;74.20;;;;;;5057843;28;20292;-84
2021/10/20 04:46:55;;;;;;;14.63;5.43;;;17.20;74.70;;;;;;5055946;28;20262;-85
2021/10/20 04:49:21;;;;;;;9.23;6.00;;;17.20;74.90;;;;;;5054748;28;20424;-85
2021/10/20 04:51:48;;;;;;;5.80;4.70;;;17.20;74.70;;;;;;5055855;28;20207;-85
2021/10/20 04:54:14;;;;;;;7.47;5.28;;;17.20;75.00;;;;;;5054875;28;20258;-84
2021/10/20 04:56:40;;;;;;;8.33;5.77;;;17.20;74.70;;;;;;5058558;28;20189;-85
2021/10/20 04:59:05;;;;;;;8.53;5.73;;;17.30;75.00;;;;;;5058090;28;20494;-85
2021/10/20 05:01:31;;;;;;;5.73;5.13;;;17.30;74.70;;;;;;5061957;28;20177;-83
2021/10/20 05:03:57;;;;;;;5.53;5.03;;;17.30;74.60;;;;;;5044004;28;20271;-83
2021/10/20 05:06:23;;;;;;;6.27;4.93;;;17.30;74.70;;;;;;5045166;28;20169;-83
2021/10/20 05:08:48;;;;;;;8.93;6.23;;;17.30;74.80;;;;;;5045372;28;20477;-83
2021/10/20 05:11:15;;;;;;;7.37;5.77;;;17.40;74.60;;;;;;5060263;28;20197;-83
2021/10/20 05:13:40;;;;;;;7.10;5.40;;;17.50;74.50;;;;;;5040476;28;20197;-83
2021/10/20 05:16:06;;;;;;;9.33;5.70;;;17.30;74.30;;;;;;5051162;28;20178;-83
2021/10/20 05:18:32;;;;;;;8.80;5.40;;;17.30;75.00;;;;;;5024874;28;20177;-83
2021/10/20 05:20:58;;;;;;;7.93;6.03;;;17.30;75.20;;;;;;5025061;28;20474;-82
2021/10/20 05:23:24;;;;;;;6.60;5.90;;;17.20;74.90;;;;;;5048820;28;20447;-83
2021/10/20 05:25:49;;;;;;;7.73;5.30;;;17.20;75.10;;;;;;5041647;28;20239;-84
2021/10/20 05:28:15;;;;;;;6.50;5.27;;;17.10;75.30;;;;;;5040614;28;20199;-83
2021/10/20 05:30:41;;;;;;;7.57;6.07;;;17.20;75.70;;;;;;5036085;28;20216;-83
2021/10/20 05:33:07;;;;;;;8.77;4.97;;;17.30;75.80;;;;;;5036318;28;20567;-84
2021/10/20 05:35:32;;;;;;;6.07;5.40;;;17.20;75.40;;;;;;5020344;28;20178;-84
2021/10/20 05:37:58;;;;;;;10.93;6.00;;;17.20;75.60;;;;;;5035686;28;20201;-84
2021/10/20 05:40:25;;;;;;;8.95;5.78;;;17.30;75.90;;;;;;5016947;28;20190;-85
2021/10/20 05:42:51;;;;;;;6.10;5.35;;;17.30;75.90;;;;;;5030540;28;20598;-85
2021/10/20 05:45:18;;;;;;;10.13;6.20;;;17.20;75.90;;;;;;5052890;28;20193;-85
2021/10/20 05:47:43;;;;;;;10.23;6.30;;;17.30;76.10;;;;;;5055372;28;20181;-84
2021/10/20 05:50:10;;;;;;;9.93;6.13;;;17.10;76.20;;;;;;5039793;28;20258;-84
2021/10/20 05:52:35;;;;;;;8.82;6.05;;;17.20;76.60;;;;;;5055691;28;20180;-83
2021/10/20 05:55:01;;;;;;;8.07;5.50;;;17.30;76.40;;;;;;5039661;28;20197;-85
2021/10/20 05:57:28;;;;;;;10.97;6.80;;;17.20;76.40;;;;;;5031620;28;20188;-85
2021/10/20 05:59:54;;;;;;;9.85;6.75;;;17.00;76.50;;;;;;5048471;28;20944;-84
2021/10/20 06:02:20;;;;;;;10.98;8.02;;;17.00;76.80;;;;;;5040585;28;20224;-85
2021/10/20 06:04:46;;;;;;;6.72;6.05;;;17.10;77.10;;;;;;5038792;28;20579;-84
2021/10/20 06:07:12;;;;;;;7.73;6.20;;;17.30;77.10;;;;;;5044271;28;20182;-84
2021/10/20 06:09:37;;;;;;;12.40;6.00;;;17.20;76.50;;;;;;5064275;28;20442;-85
2021/10/20 06:12:05;;;;;;;8.00;6.20;;;17.30;76.70;;;;;;5063617;28;20200;-84
2021/10/20 06:14:31;;;;;;;10.05;5.93;;;17.30;76.60;;;;;;5051527;28;20444;-84
2021/10/20 06:16:57;;;;;;;9.45;5.53;;;17.30;76.40;;;;;;5037258;28;20182;-84
2021/10/20 06:19:24;;;;;;;8.93;6.30;;;17.40;76.30;;;;;;5053690;28;20174;-85
2021/10/20 06:21:50;;;;;;;7.97;7.18;;;17.40;76.40;;;;;;5057908;28;20611;-84
2021/10/20 06:24:16;;;;;;;9.18;6.28;;;17.40;76.50;;;;;;5062673;28;20296;-84
2021/10/20 06:26:42;;;;;;;9.10;5.63;;;17.30;76.60;;;;;;5059768;28;20193;-83
2021/10/20 06:29:07;;;;;;;8.50;6.10;;;17.40;76.70;;;;;;5038886;28;20185;-83
2021/10/20 06:31:33;;;;;;;11.37;6.90;;;17.40;76.70;;;;;;5067618;28;20459;-83
2021/10/20 06:33:59;;;;;;;7.22;6.18;;;17.40;76.60;;;;;;5061181;28;20614;-84
2021/10/20 06:36:29;;;;;;;8.57;6.43;;;17.50;76.60;;;;;;5069681;28;20192;-84
2021/10/20 06:38:56;;;;;;;8.68;6.75;;;17.40;76.80;;;;;;5070830;28;20918;-83
2021/10/20 06:41:22;;;;;;;9.55;6.85;;;17.20;77.60;;;;;;5064021;28;20212;-83
2021/10/20 06:43:47;;;;;;;8.47;7.00;;;17.00;79.10;;;;;;5055239;28;20735;-84
2021/10/20 06:46:13;;;;;;;12.60;6.93;;;16.60;80.70;;;;;;5061125;28;20699;-84
2021/10/20 06:48:39;;;;;;;9.57;7.20;;;16.50;83.40;;;;;;5061500;28;20425;-83
2021/10/20 06:51:06;;;;;;;10.80;8.03;;;16.60;83.60;;;;;;5045128;28;20247;-83
2021/10/20 06:53:32;;;;;;;11.13;8.23;;;16.70;84.30;;;;;;5057356;28;20444;-83
2021/10/20 06:55:57;;;;;;;12.70;9.83;;;16.40;85.00;;;;;;5076884;28;20196;-83
2021/10/20 06:58:23;;;;;;;9.33;8.13;;;16.30;85.70;;;;;;5068829;28;20414;-82
2021/10/20 07:00:49;;;;;;;11.83;9.10;;;16.10;86.30;;;;;;5070149;28;20436;-82
2021/10/20 07:03:15;;;;;;;11.10;7.60;;;15.90;86.90;;;;;;5071366;28;20975;-83
2021/10/20 07:05:41;;;;;;;11.82;8.35;;;15.90;87.60;;;;;;5059541;28;20443;-83
2021/10/20 07:08:07;;;;;;;12.60;8.70;;;15.80;88.10;;;;;;5046073;28;20189;-83
2021/10/20 07:10:33;;;;;;;19.10;8.70;;;15.80;88.50;;;;;;5042857;28;20210;-83
2021/10/20 07:12:58;;;;;;;17.20;8.98;;;15.80;88.90;;;;;;5044972;28;20227;-84
2021/10/20 07:15:24;;;;;;;13.17;9.07;;;15.70;89.20;;;;;;5045525;28;20177;-83
2021/10/20 07:17:50;;;;;;;12.07;8.40;;;15.80;89.10;;;;;;5062623;28;20170;-83
2021/10/20 07:20:16;;;;;;;14.90;9.93;;;15.90;89.20;;;;;;5064728;28;20177;-82
2021/10/20 07:22:42;;;;;;;12.43;9.90;;;15.90;88.80;;;;;;5065774;28;20174;-83
2021/10/20 07:25:09;;;;;;;17.30;11.00;;;15.90;88.70;;;;;;5063270;28;20202;-81
2021/10/20 07:27:35;;;;;;;18.17;9.20;;;16.00;88.70;;;;;;5044668;28;20178;-82
2021/10/20 07:30:05;;;;;;;13.70;9.80;;;15.90;88.90;;;;;;5055670;28;20178;-82
2021/10/20 07:32:30;;;;;;;16.20;11.13;;;16.00;89.00;;;;;;5058955;28;20170;-82
2021/10/20 07:34:56;;;;;;;13.00;10.17;;;16.00;88.70;;;;;;5058508;28;20218;-82
2021/10/20 07:37:22;;;;;;;12.20;9.90;;;16.10;88.80;;;;;;5058952;28;20229;-82
2021/10/20 07:39:48;;;;;;;15.90;10.27;;;16.10;88.70;;;;;;5067327;28;20178;-82
2021/10/20 07:42:14;;;;;;;13.23;9.60;;;16.50;88.50;;;;;;5079420;28;20189;-81
2021/10/20 07:44:40;;;;;;;13.73;9.77;;;16.60;88.00;;;;;;5074772;28;20453;-82
2021/10/20 07:47:06;;;;;;;16.70;8.70;;;16.70;87.40;;;;;;5059237;28;20220;-84
2021/10/20 07:49:32;;;;;;;14.30;9.85;;;16.90;87.10;;;;;;5060395;28;20186;-84
2021/10/20 07:51:57;;;;;;;13.13;8.80;;;16.90;86.70;;;;;;5037490;28;20263;-84
2021/10/20 07:54:24;;;;;;;15.67;10.70;;;17.00;86.10;;;;;;5053902;28;20432;-85
2021/10/20 07:56:52;;;;;;;18.55;10.38;;;17.10;85.80;;;;;;5056812;28;20193;-85
2021/10/20 07:59:20;;;;;;;15.68;10.05;;;17.10;85.30;;;;;;5053081;28;20280;-84
2021/10/20 08:01:45;;;;;;;16.42;10.80;;;17.30;85.30;;;;;;5058018;28;20170;-84
2021/10/20 08:04:11;;;;;;;16.10;9.73;;;17.40;84.80;;;;;;5058482;28;20224;-84
2021/10/20 08:06:37;;;;;;;12.27;9.73;;;17.50;84.40;;;;;;5059935;28;20236;-82
2021/10/20 08:09:03;;;;;;;13.17;8.20;;;17.50;84.20;;;;;;5087603;28;20193;-83
2021/10/20 08:11:29;;;;;;;14.43;9.73;;;17.30;84.00;;;;;;5076677;28;20507;-82
2021/10/20 08:13:55;;;;;;;12.20;9.00;;;17.60;83.70;;;;;;5074874;28;20201;-83
2021/10/20 08:16:21;;;;;;;15.33;8.90;;;17.70;83.30;;;;;;5074742;28;20174;-82
2021/10/20 08:18:47;;;;;;;12.02;9.38;;;17.40;82.60;;;;;;5057999;28;20437;-82
2021/10/20 08:21:13;;;;;;;11.30;8.60;;;17.70;83.10;;;;;;5058578;28;20169;-82
2021/10/20 08:23:41;;;;;;;18.20;10.00;;;17.50;82.40;;;;;;5054691;28;20197;-82
2021/10/20 08:26:08;;;;;;;13.43;8.48;;;17.60;82.80;;;;;;5069448;28;20424;-83
2021/10/20 08:28:35;;;;;;;12.07;8.38;;;17.50;82.40;;;;;;5078983;28;20185;-83
2021/10/20 08:31:00;;;;;;;15.13;9.07;;;17.50;82.40;;;;;;5074363;28;20257;-82
2021/10/20 08:33:26;;;;;;;13.73;9.00;;;17.50;82.30;;;;;;5055743;28;20214;-82
2021/10/20 08:35:52;;;;;;;15.40;10.07;;;17.60;82.00;;;;;;5075195;28;20432;-83
2021/10/20 08:38:18;;;;;;;11.70;9.20;;;17.60;82.00;;;;;;5059092;28;20504;-83
2021/10/20 08:40:47;;;;;;;16.53;9.00;;;17.40;81.90;;;;;;5057723;28;20427;-83
2021/10/20 08:43:15;;;;;;;9.80;8.10;;;17.40;82.10;;;;;;5056640;28;20204;-83
2021/10/20 08:45:40;;;;;;;10.55;8.63;;;17.50;82.20;;;;;;5074353;28;20241;-83
2021/10/20 08:48:06;;;;;;;13.20;8.37;;;17.60;81.70;;;;;;5056531;28;20170;-83
2021/10/20 08:50:34;;;;;;;14.35;9.00;;;17.60;81.40;;;;;;5072427;28;20220;-82
2021/10/20 08:53:00;;;;;;;14.38;8.82;;;17.60;81.20;;;;;;5062619;28;20197;-83
2021/10/20 08:55:26;;;;;;;10.80;8.80;;;17.80;81.00;;;;;;5076819;28;20193;-83
2021/10/20 08:57:54;;;;;;;14.30;8.65;;;17.90;80.50;;;;;;5076228;28;20178;-82
2021/10/20 09:00:22;;;;;;;8.93;8.00;;;17.90;80.40;;;;;;5077007;28;20175;-82
2021/10/20 09:02:49;;;;;;;11.10;7.90;;;18.00;79.80;;;;;;5074848;28;20204;-83
2021/10/20 09:05:18;;;;;;;9.05;8.02;;;18.20;79.60;;;;;;5071708;28;20207;-82
2021/10/20 09:07:45;;;;;;;9.95;7.32;;;18.50;79.50;;;;;;5057227;28;20283;-82
2021/10/20 09:10:12;;;;;;;9.30;6.90;;;18.40;78.30;;;;;;5056577;28;20216;-82
2021/10/20 09:12:40;;;;;;;10.18;8.00;;;18.20;78.80;;;;;;5061277;28;20184;-82
2021/10/20 09:15:20;;;;;;;13.50;7.32;;;18.40;78.30;;;;;;5054588;28;20198;-82
2021/10/20 09:17:54;;;;;;;9.70;8.10;;;18.40;78.00;;;;;;5022773;28;20268;-81
2021/10/20 09:20:27;;;;;;;9.50;7.00;;;18.30;78.10;;;;;;5022375;28;20256;-82
2021/10/20 09:22:57;;;;;;;8.98;7.50;;;18.30;77.90;;;;;;5022149;28;20216;-83
2021/10/20 09:25:25;;;;;;;11.23;7.15;;;18.30;78.00;;;;;;5029101;28;20185;-82
2021/10/20 09:27:52;;;;;;;12.13;6.95;;;18.30;77.80;;;;;;5040081;28;20315;-82
2021/10/20 09:30:20;;;;;;;10.35;6.75;;;18.20;78.00;;;;;;5038910;28;20205;-82
2021/10/20 09:32:49;;;;;;;7.20;6.45;;;18.50;78.30;;;;;;5051385;28;20181;-82
2021/10/20 09:35:15;;;;;;;7.60;6.90;;;18.40;77.40;;;;;;5059945;28;20740;-82
2021/10/20 09:37:41;;;;;;;16.45;6.90;;;18.30;77.70;;;;;;5060240;28;20242;-82
2021/10/20 09:40:11;;;;;;;9.93;6.43;;;18.40;77.80;;;;;;5044247;28;20183;-82
2021/10/20 09:42:48;;;;;;;9.45;7.30;;;18.40;77.50;;;;;;5031254;28;20245;-82
2021/10/20 09:45:19;;;;;;;6.95;6.13;;;18.60;77.30;;;;;;5047214;28;20200;-82
2021/10/20 09:47:45;;;;;;;7.28;6.63;;;18.50;77.10;;;;;;5043353;28;20189;-82
2021/10/20 09:50:12;;;;;;;10.37;7.33;;;18.50;77.30;;;;;;5021303;28;20209;-82
2021/10/20 09:52:50;;;;;;;9.63;7.50;;;18.50;77.30;;;;;;5018653;28;20537;-83
2021/10/20 09:55:25;;;;;;;38.00;11.55;;;18.50;77.00;;;;;;5021400;28;20178;-82
2021/10/20 09:58:10;;;;;;;13.88;7.47;;;18.70;77.20;;;;;;5022222;28;20176;-82
2021/10/20 10:00:37;;;;;;;11.20;7.40;;;18.70;76.80;;;;;;5042687;28;20181;-82
2021/10/20 10:03:05;;;;;;;15.10;7.00;;;18.80;76.60;;;;;;5040743;28;20181;-82
2021/10/20 10:05:32;;;;;;;19.63;6.40;;;18.80;76.10;;;;;;5054389;28;20193;-82
2021/10/20 10:07:58;;;;;;;36.65;8.77;;;18.90;76.00;;;;;;5051378;28;20264;-82
2021/10/20 10:10:24;;;;;;;11.45;7.00;;;19.00;75.80;;;;;;5056703;28;20196;-82
2021/10/20 10:13:25;;;;;;;8.35;6.00;;;19.10;75.50;;;;;;5058418;28;20227;-81
2021/10/20 10:15:53;;;;;;;11.07;6.10;;;19.10;75.00;;;;;;5022827;28;20190;-83
2021/10/20 10:18:20;;;;;;;14.52;7.10;;;19.10;74.70;;;;;;5041071;28;20174;-81
2021/10/20 10:20:46;;;;;;;7.55;6.57;;;19.00;75.00;;;;;;5041676;28;20170;-83
2021/10/20 10:23:23;;;;;;;10.20;6.25;;;18.90;75.20;;;;;;5039108;28;20201;-85
2021/10/20 10:26:07;;;;;;;11.02;6.68;;;18.90;75.50;;;;;;5047601;28;20177;-84
2021/10/20 10:28:36;;;;;;;8.63;7.40;;;19.20;75.70;;;;;;5057314;28;20323;-83
2021/10/20 10:31:08;;;;;;;9.95;6.32;;;19.40;74.80;;;;;;5046526;28;20217;-82
2021/10/20 10:33:53;;;;;;;7.75;6.75;;;19.60;74.20;;;;;;5053284;28;20212;-83
2021/10/20 10:36:22;;;;;;;7.15;5.93;;;19.60;73.40;;;;;;5067649;28;20174;-83
2021/10/20 10:38:48;;;;;;;12.82;6.80;;;19.60;73.40;;;;;;5064593;28;20174;-83
2021/10/20 10:41:29;;;;;;;6.53;5.80;;;19.80;73.10;;;;;;5048694;28;20199;-84
2021/10/20 10:44:01;;;;;;;10.70;5.90;;;20.00;72.70;;;;;;5064829;28;20198;-84
2021/10/20 10:46:30;;;;;;;14.80;7.57;;;20.10;72.40;;;;;;5042286;28;20185;-84
2021/10/20 10:48:59;;;;;;;9.80;6.28;;;19.90;72.20;;;;;;5058621;28;20237;-83
2021/10/20 10:51:25;;;;;;;9.18;7.53;;;19.90;72.40;;;;;;5057051;28;20205;-83
2021/10/20 10:53:59;;;;;;;6.90;6.20;;;19.80;72.80;;;;;;5041242;28;20280;-84
2021/10/20 10:56:25;;;;;;;6.65;5.40;;;19.80;73.00;;;;;;5056478;28;20239;-83
2021/10/20 10:59:06;;;;;;;7.80;6.13;;;19.90;72.50;;;;;;5023293;28;20645;-83
2021/10/20 11:01:39;;;;;;;8.30;6.18;;;19.70;73.80;;;;;;5057154;28;20523;-83
2021/10/20 11:04:16;;;;;;;9.80;6.10;;;19.60;73.00;;;;;;5047326;28;20213;-83
2021/10/20 11:06:42;;;;;;;6.97;6.28;;;19.50;73.50;;;;;;5042138;28;20173;-82
2021/10/20 11:09:08;;;;;;;10.10;6.40;;;19.50;74.00;;;;;;5059928;28;20256;-83
2021/10/20 11:11:34;;;;;;;8.00;5.78;;;19.50;74.30;;;;;;5060262;28;20466;-81
2021/10/20 11:14:03;;;;;;;9.43;6.90;;;19.50;74.30;;;;;;5060734;28;20197;-81
2021/10/20 11:16:29;;;;;;;9.65;6.95;;;19.50;74.10;;;;;;5040699;28;20432;-81
2021/10/20 11:18:55;;;;;;;12.07;6.70;;;19.50;73.90;;;;;;5043045;28;20181;-82
2021/10/20 11:21:23;;;;;;;8.95;6.47;;;19.60;74.10;;;;;;5058017;28;20201;-81
2021/10/20 11:23:49;;;;;;;7.90;5.60;;;19.80;73.60;;;;;;5061243;28;20201;-81
2021/10/20 11:26:15;;;;;;;10.00;6.13;;;19.80;73.00;;;;;;5062318;28;20239;-82
2021/10/20 11:28:41;;;;;;;7.97;6.88;;;19.80;72.80;;;;;;5060032;28;20493;-82
2021/10/20 11:31:11;;;;;;;6.45;5.85;;;19.80;72.90;;;;;;5068155;28;20216;-82
2021/10/20 11:33:37;;;;;;;6.95;6.25;;;19.80;73.20;;;;;;5068602;28;20614;-81
2021/10/20 11:36:03;;;;;;;7.18;5.90;;;19.80;73.30;;;;;;5067578;28;20188;-83
2021/10/20 11:38:35;;;;;;;7.45;6.75;;;19.80;73.70;;;;;;5049149;28;20170;-82
2021/10/20 11:41:03;;;;;;;7.70;6.35;;;19.80;73.00;;;;;;5046541;28;20644;-81
2021/10/20 11:43:39;;;;;;;10.52;5.72;;;19.80;73.10;;;;;;5048318;28;20661;-81
2021/10/20 11:46:06;;;;;;;7.63;5.80;;;19.60;73.70;;;;;;5045953;28;20201;-81
2021/10/20 11:48:34;;;;;;;8.88;7.05;;;19.60;73.90;;;;;;5047869;28;20169;-81
2021/10/20 11:51:01;;;;;;;11.05;6.30;;;19.50;74.20;;;;;;5064598;28;20285;-81
2021/10/20 11:53:31;;;;;;;10.70;5.97;;;19.60;74.20;;;;;;5047602;28;20735;-81
2021/10/20 11:56:00;;;;;;;7.75;5.85;;;19.80;74.00;;;;;;5049128;28;20186;-81
2021/10/20 11:58:29;;;;;;;9.45;8.23;;;19.80;73.70;;;;;;5043861;28;20718;-82
2021/10/20 12:01:05;;;;;;;8.02;5.80;;;20.00;73.50;;;;;;5050058;28;20546;-82
2021/10/20 12:03:43;;;;;;;7.95;5.60;;;19.70;73.10;;;;;;5050155;28;20581;-81
2021/10/20 12:06:14;;;;;;;9.25;5.70;;;19.90;73.40;;;;;;5045677;28;20194;-81
2021/10/20 12:08:45;;;;;;;9.23;6.07;;;19.80;73.00;;;;;;5045448;28;20555;-84
2021/10/20 12:11:15;;;;;;;11.45;6.20;;;19.80;73.20;;;;;;5047997;28;20292;-83
2021/10/20 12:13:41;;;;;;;9.13;5.38;;;19.70;73.50;;;;;;5050984;28;20201;-83
2021/10/20 12:16:08;;;;;;;7.10;5.15;;;19.80;73.70;;;;;;5063339;28;20188;-83
2021/10/20 12:18:40;;;;;;;7.80;5.65;;;19.80;73.30;;;;;;5054870;28;20181;-83
2021/10/20 12:21:11;;;;;;;8.55;6.25;;;19.70;73.20;;;;;;5058050;28;20188;-83
2021/10/20 12:23:37;;;;;;;5.70;5.20;;;19.70;73.70;;;;;;5057993;28;20557;-83
2021/10/20 12:26:06;;;;;;;6.03;5.43;;;19.80;73.50;;;;;;5058543;28;20181;-83
2021/10/20 12:28:33;;;;;;;6.57;5.90;;;20.00;73.30;;;;;;5059320;28;20188;-82
2021/10/20 12:31:13;;;;;;;6.10;5.20;;;20.10;72.80;;;;;;5056910;28;20217;-82
2021/10/20 12:33:42;;;;;;;7.13;6.40;;;20.10;72.90;;;;;;5047484;28;20197;-83
2021/10/20 12:36:09;;;;;;;7.55;5.47;;;20.20;72.70;;;;;;5055760;28;20177;-82
2021/10/20 12:38:37;;;;;;;10.38;5.63;;;20.30;71.70;;;;;;5053536;28;20212;-83
2021/10/20 12:41:11;;;;;;;5.45;4.50;;;20.20;71.40;;;;;;5064793;28;20243;-83
2021/10/20 12:43:37;;;;;;;10.05;5.85;;;20.30;71.80;;;;;;5048662;28;20206;-83